• Join FlightAware (Why Join?)
  • Login
  • US Flag 
12:38AM EDT


 

Airport Tracker/Info


-or-


 

Live Flight TrackerFlight Track Log ✈ CPT7563 ✈ 26-Apr-2013 ✈ KMOT - KGFK

Flight Track Log - Related Links

Times and Time Zones

All times are in EDT time to prevent confusion due to time zone crossing. See the CPT7563 flight status page for this flight to view local times or setup timezone preferences in your user account.

Time Position Orientation Groundspeed Altitude Reporting Facility
EDT Latitude Longitude Course Direction KTS MPH feet Rate Location/Type
07:30PM 48.2439 -101.0381 98° East 128 147 7,500  Level Minneapolis Center
07:31PM 48.2333 -100.8578 90° East  Level FlightAware Approximate
07:31PM 48.2417 -100.9797 93° East 138 159 8,500  Level Minneapolis Center
07:32PM 48.2317 -100.7993 98° East  Level FlightAware Approximate
07:32PM 48.2367 -100.8986 95° East 150 173 8,900  Level Minneapolis Center
07:33PM 48.2262 -100.7412 98° East  Level FlightAware Approximate
07:33PM 48.2331 -100.8208 94° East 170 196 8,900  Level Minneapolis Center
07:34PM 48.2207 -100.6831 98° East  Level FlightAware Approximate
07:34PM 48.2297 -100.7450 94° East 178 205 8,900  Level Minneapolis Center
07:35PM 48.2152 -100.6250 98° East  Level FlightAware Approximate
07:35PM 48.2261 -100.6697 94° East 180 207 8,900  Level Minneapolis Center
07:36PM 48.2222 -100.5950 94° East 181 208 8,900  Level Minneapolis Center
07:37PM 48.2169 -100.5039 95° East 182 209 8,900  Level Minneapolis Center
07:38PM 48.2119 -100.4283 96° East 182 209 8,900  Level Minneapolis Center
07:39PM 48.2081 -100.3533 94° East 182 209 8,900  Level Minneapolis Center
07:40PM 48.2036 -100.2778 95° East 182 209 8,900  Level Minneapolis Center
07:41PM 48.1997 -100.2011 94° East 183 211 8,900  Level Minneapolis Center
07:42PM 48.1950 -100.1256 95° East 183 211 8,900  Level Minneapolis Center
07:43PM 48.1889 -100.0344 96° East 184 212 8,900  Level Minneapolis Center
07:44PM 48.1842 -99.9564 95° East 185 213 8,900  Level Minneapolis Center
07:45PM 48.1789 -99.8803 96° East 185 213 8,900  Level Minneapolis Center
07:47PM 48.1750 -99.8028 94° East 186 214 8,900  Level Minneapolis Center
07:48PM 48.1686 -99.7278 97° East 184 212 9,000  Climbing Minneapolis Center
07:49PM 48.1650 -99.6497 94° East 186 214 9,000  Level Minneapolis Center
07:50PM 48.1589 -99.5561 96° East 187 215 9,000  Level Minneapolis Center
07:51PM 48.1544 -99.4786 95° East 188 216 9,000  Level Minneapolis Center
07:52PM 48.1486 -99.4019 96° East 187 215 9,000  Level Minneapolis Center
07:53PM 48.1433 -99.3242 96° East 188 216 9,000  Level Minneapolis Center
07:54PM 48.1386 -99.2469 95° East 188 216 9,000  Level Minneapolis Center
07:55PM 48.1336 -99.1703 96° East 186 214 9,000  Level Minneapolis Center
07:56PM 48.1281 -99.0919 96° East 187 215 9,000  Level Minneapolis Center
07:57PM 48.1206 -98.9994 97° East 187 215 9,000  Level Minneapolis Center
07:58PM 48.1147 -98.9217 96° East 188 216 9,000  Level Minneapolis Center
07:59PM 48.1097 -98.8458 96° East 187 215 9,000  Level Minneapolis Center
08:00PM 48.1022 -98.7683 98° East 187 215 9,000  Level Minneapolis Center
08:01PM 48.0947 -98.6931 98° East 186 214 9,000  Level Minneapolis Center
08:02PM 48.0886 -98.6169 97° East 185 213 9,000  Level Minneapolis Center
08:03PM 48.0794 -98.5261 99° East 185 213 9,000  Level Minneapolis Center
08:04PM 48.0722 -98.4508 98° East 184 212 9,000  Level Minneapolis Center
08:05PM 48.0647 -98.3750 98° East 184 212 9,000  Level Minneapolis Center
08:05PM 48.0639 -98.3528 93° East 184 212 9,000  Level Minneapolis Center
08:06PM 48.0578 -98.2997 100° East 184 212 9,000  Level Minneapolis Center
08:07PM 48.0511 -98.2233 97° East 184 212 9,000 -120 Level Minneapolis Center
08:08PM 48.0431 -98.1219 97° East 182 209 8,800 -300 Descending Minneapolis Center
08:09PM 48.0378 -98.0886 103° East 183 211 8,500 -600 Descending Minneapolis Center
08:10PM 48.0289 -97.9828 97° East 183 211 7,700 -660 Descending Minneapolis Center
08:11PM 48.0289 -97.9072 90° East 183 211 7,200 -540 Descending Minneapolis Center
08:12PM 48.0328 -97.8319 86° East 182 209 6,600 -540 Descending Minneapolis Center
08:13PM 48.0361 -97.7578 86° East 181 208 6,100 -480 Descending Minneapolis Center
08:14PM 48.0383 -97.6825 87° East 181 208 5,600 -540 Descending Minneapolis Center
08:15PM 48.0417 -97.6083 86° East 180 207 5,100 -540 Descending Minneapolis Center
08:16PM 48.0472 -97.5203 85° East 179 206 4,500 -540 Descending Minneapolis Center
08:18PM 48.0522 -97.4481 84° East 177 204 4,000 -420 Descending Minneapolis Center
08:19PM 48.0575 -97.3786 83° East 174 200 3,700 -420 Descending Minneapolis Center
08:20PM 48.0606 -97.3125 86° East 168 193 3,200 -540 Descending Minneapolis Center
08:21PM 48.0583 -97.2500 93° East 160 184 2,600 -660 Descending Minneapolis Center
08:22PM 48.0306 -97.2219 146° Southeast 140 161 1,900 -540 Descending Minneapolis Center
08:23PM 47.9869 -97.1967 159° South 140 161 1,600 -300 Descending Minneapolis Center
08:24PM 47.9622 -97.1831 160° South 84 97 1,300 -360 Descending Minneapolis Center
08:25PM 47.9428 -97.1792 172° South 108 124 900 -420 Descending Minneapolis Center